Time;durP1;ratioP1;P1;durP2;ratioP2;P2;SDS_P1;SDS_P2;PMS_P1;PMS_P2;Temp;Humidity;BMP_temperature;BMP_pressure;BME280_temperature;BME280_humidity;BME280_pressure;Samples;Min_cycle;Max_cycle;Signal;HPM_P1;HPM_P2
2022/07/27 00:01:30;;;;;;;13.02;2.33;;;13.80;99.90;;;;;;5033594;28;20086;-70
2022/07/27 00:03:55;;;;;;;13.68;2.17;;;13.80;99.90;;;;;;5032053;28;20033;-70
2022/07/27 00:06:21;;;;;;;14.07;2.20;;;13.90;99.90;;;;;;5033895;28;20040;-70
2022/07/27 00:08:47;;;;;;;18.08;2.30;;;13.90;99.90;;;;;;5033800;28;20029;-70
2022/07/27 00:11:13;;;;;;;12.52;2.65;;;13.90;99.90;;;;;;5033418;28;20029;-70
2022/07/27 00:13:39;;;;;;;19.27;3.42;;;13.90;99.90;;;;;;5014885;28;20025;-69
2022/07/27 00:16:05;;;;;;;13.98;2.70;;;13.70;99.90;;;;;;5034010;28;20045;-70
2022/07/27 00:18:31;;;;;;;19.10;3.00;;;13.50;99.90;;;;;;5033356;28;20057;-70
2022/07/27 00:20:56;;;;;;;13.65;2.85;;;13.50;99.90;;;;;;5033287;28;20039;-70
2022/07/27 00:23:22;;;;;;;15.32;3.00;;;13.50;99.90;;;;;;5033689;28;20040;-70
2022/07/27 00:25:47;;;;;;;22.25;4.00;;;13.40;99.90;;;;;;5032525;28;20041;-70
2022/07/27 00:28:13;;;;;;;23.02;5.38;;;13.40;99.90;;;;;;5033756;28;20038;-70
2022/07/27 00:30:39;;;;;;;20.30;2.63;;;13.40;99.90;;;;;;5033318;28;20473;-70
2022/07/27 00:33:05;;;;;;;26.00;3.40;;;13.40;99.90;;;;;;5033322;28;20026;-70
2022/07/27 00:35:31;;;;;;;22.40;2.90;;;13.40;99.90;;;;;;5032350;28;20033;-70
2022/07/27 00:37:57;;;;;;;15.40;3.08;;;13.40;99.90;;;;;;5035189;28;20050;-69
2022/07/27 00:40:23;;;;;;;10.52;3.47;;;13.40;99.90;;;;;;5037287;28;20513;-70
2022/07/27 00:42:48;;;;;;;20.23;2.75;;;13.40;99.90;;;;;;5037191;28;20033;-69
2022/07/27 00:45:14;;;;;;;12.27;2.88;;;13.40;99.90;;;;;;5036239;28;20037;-70
2022/07/27 00:47:39;;;;;;;16.05;2.30;;;13.40;99.90;;;;;;5037203;28;20025;-70
2022/07/27 00:50:06;;;;;;;12.27;1.80;;;13.40;99.90;;;;;;5037333;28;20025;-70
2022/07/27 00:52:32;;;;;;;14.90;2.22;;;13.50;99.90;;;;;;5037146;28;20025;-70
2022/07/27 00:54:58;;;;;;;16.10;2.30;;;13.50;99.90;;;;;;5036076;28;20018;-70
2022/07/27 00:57:26;;;;;;;12.15;1.48;;;13.50;99.90;;;;;;5019314;28;20021;-70
2022/07/27 00:59:52;;;;;;;13.75;2.00;;;13.50;99.90;;;;;;5034925;28;20394;-69
2022/07/27 01:02:19;;;;;;;12.07;2.08;;;13.50;99.90;;;;;;5035231;28;20030;-70
2022/07/27 01:04:45;;;;;;;14.77;2.67;;;13.50;99.90;;;;;;5036963;28;20581;-70
2022/07/27 01:07:11;;;;;;;15.70;2.65;;;13.50;99.90;;;;;;5036906;28;20108;-70
2022/07/27 01:09:55;;;;;;;16.90;2.28;;;13.50;99.90;;;;;;5036698;28;20033;-70
2022/07/27 01:12:21;;;;;;;;;;;13.30;99.90;;;;;;5036944;28;20126;-70
2022/07/27 01:14:48;;;;;;;16.52;2.33;;;13.20;99.90;;;;;;5036591;28;20323;-69
2022/07/27 01:17:15;;;;;;;18.08;2.97;;;13.00;99.90;;;;;;5036568;28;20026;-70
2022/07/27 01:19:40;;;;;;;25.15;3.38;;;12.90;99.90;;;;;;5036897;28;20046;-70
2022/07/27 01:22:06;;;;;;;21.80;2.65;;;12.80;99.90;;;;;;5035827;28;20037;-70
2022/07/27 01:24:32;;;;;;;22.92;3.92;;;12.80;99.90;;;;;;5036678;28;20022;-70
2022/07/27 01:27:00;;;;;;;15.10;1.98;;;12.90;99.90;;;;;;5036446;28;20037;-70
2022/07/27 01:29:26;;;;;;;11.55;2.03;;;12.80;99.90;;;;;;5036359;28;20039;-70
2022/07/27 01:31:52;;;;;;;14.48;1.90;;;12.90;99.90;;;;;;5034694;28;20049;-70
2022/07/27 01:34:18;;;;;;;9.20;1.90;;;13.00;99.90;;;;;;5036647;28;20513;-70
2022/07/27 01:36:44;;;;;;;20.80;2.97;;;13.10;99.90;;;;;;5036313;28;20025;-70
2022/07/27 01:39:11;;;;;;;16.90;2.58;;;13.20;99.90;;;;;;5036536;28;20038;-70
2022/07/27 01:41:36;;;;;;;11.85;2.25;;;13.20;99.90;;;;;;5035311;28;20052;-70
2022/07/27 01:44:02;;;;;;;9.18;1.70;;;13.20;99.90;;;;;;5036483;28;20478;-70
2022/07/27 01:46:27;;;;;;;10.98;2.30;;;13.20;99.90;;;;;;5037255;28;20155;-70
2022/07/27 01:48:53;;;;;;;11.85;1.58;;;13.20;99.90;;;;;;5036395;28;20084;-70
2022/07/27 01:51:19;;;;;;;11.80;2.28;;;13.30;99.90;;;;;;5017964;28;20029;-70
2022/07/27 01:53:44;;;;;;;13.02;1.77;;;13.40;99.90;;;;;;5035890;28;20088;-70
2022/07/27 01:56:11;;;;;;;14.65;2.00;;;13.50;99.90;;;;;;5036006;28;20026;-70
2022/07/27 01:58:38;;;;;;;8.05;1.92;;;13.50;99.90;;;;;;5034681;28;20026;-70
2022/07/27 02:01:05;;;;;;;17.42;3.80;;;13.60;99.90;;;;;;5018628;28;20030;-70
2022/07/27 02:03:31;;;;;;;9.10;1.80;;;13.70;99.90;;;;;;5035903;28;20026;-70
2022/07/27 02:05:57;;;;;;;22.30;2.97;;;13.80;99.90;;;;;;5035955;28;20492;-70
2022/07/27 02:08:23;;;;;;;16.33;2.50;;;13.80;99.90;;;;;;5034817;28;20113;-70
2022/07/27 02:13:33;;;;;;;14.13;2.55;;;13.90;99.90;;;;;;5035832;28;20037;-70
2022/07/27 02:15:59;;;;;;;23.23;2.67;;;13.90;99.90;;;;;;5034729;28;20021;-68
2022/07/27 02:18:24;;;;;;;24.08;2.63;;;13.90;99.90;;;;;;5015778;28;20445;-70
2022/07/27 02:20:50;;;;;;;22.80;2.55;;;13.70;99.90;;;;;;5016367;28;20084;-69
2022/07/27 02:23:16;;;;;;;23.27;2.40;;;13.80;99.90;;;;;;5015790;28;20113;-70
2022/07/27 02:25:42;;;;;;;13.18;2.20;;;13.70;99.90;;;;;;5015912;28;20121;-70
2022/07/27 02:28:08;;;;;;;19.27;3.92;;;13.60;99.90;;;;;;5032470;28;20025;-70
2022/07/27 02:30:34;;;;;;;25.48;2.88;;;13.70;99.90;;;;;;5035281;28;20090;-70
2022/07/27 02:32:59;;;;;;;24.10;3.03;;;13.70;99.90;;;;;;5035333;28;20096;-70
2022/07/27 02:35:25;;;;;;;23.77;2.65;;;13.60;99.90;;;;;;5035590;28;20501;-70
2022/07/27 02:37:51;;;;;;;15.02;2.92;;;13.70;99.90;;;;;;5034122;28;20025;-70
2022/07/27 02:40:17;;;;;;;19.40;3.25;;;13.60;99.90;;;;;;5035200;28;20029;-70
2022/07/27 02:42:44;;;;;;;15.27;2.05;;;13.60;99.90;;;;;;5035112;28;20040;-70
2022/07/27 02:45:09;;;;;;;18.92;2.45;;;13.50;99.90;;;;;;5035024;28;20027;-70
2022/07/27 02:47:35;;;;;;;21.95;3.65;;;13.50;99.90;;;;;;5034074;28;20111;-70
2022/07/27 02:50:01;;;;;;;13.88;2.63;;;13.50;99.90;;;;;;5017086;28;20036;-70
2022/07/27 02:52:27;;;;;;;16.95;2.47;;;13.50;99.90;;;;;;5034973;28;20025;-70
2022/07/27 02:54:52;;;;;;;15.77;2.67;;;13.50;99.90;;;;;;5034753;28;20021;-70
2022/07/27 02:57:18;;;;;;;17.77;2.83;;;13.50;99.90;;;;;;5033812;28;20025;-70
2022/07/27 02:59:44;;;;;;;16.45;2.42;;;13.50;99.90;;;;;;5033944;28;20029;-70
2022/07/27 03:02:09;;;;;;;15.63;2.03;;;13.60;99.90;;;;;;5034807;28;20492;-70
2022/07/27 03:04:35;;;;;;;14.32;2.33;;;13.50;99.90;;;;;;5034978;28;20025;-70
2022/07/27 03:07:01;;;;;;;9.60;2.08;;;13.50;99.90;;;;;;5033908;28;20053;-70
2022/07/27 03:09:26;;;;;;;15.45;1.70;;;13.40;99.90;;;;;;5034433;28;20026;-70
2022/07/27 03:11:52;;;;;;;11.82;1.92;;;13.30;99.90;;;;;;5034728;28;20055;-69
2022/07/27 03:14:17;;;;;;;15.52;2.20;;;13.20;99.90;;;;;;5034514;28;20072;-70
2022/07/27 03:16:43;;;;;;;10.52;2.00;;;13.20;99.90;;;;;;5033958;28;20028;-70
2022/07/27 03:19:08;;;;;;;10.10;1.88;;;13.10;99.90;;;;;;5034237;28;20041;-69
2022/07/27 03:21:34;;;;;;;12.40;2.15;;;13.10;99.90;;;;;;5034621;28;20034;-70
2022/07/27 03:23:59;;;;;;;17.35;2.60;;;13.20;99.90;;;;;;5034237;28;20033;-70
2022/07/27 03:26:25;;;;;;;11.43;1.48;;;13.20;99.90;;;;;;5033387;28;20034;-69
2022/07/27 03:28:51;;;;;;;10.02;1.83;;;13.30;99.90;;;;;;5034384;28;20526;-70
2022/07/27 03:31:16;;;;;;;16.30;2.75;;;13.40;99.90;;;;;;5034339;28;20034;-70
2022/07/27 03:33:42;;;;;;;13.02;1.65;;;13.50;99.90;;;;;;5034121;28;20096;-70
2022/07/27 03:36:08;;;;;;;12.18;1.80;;;13.60;99.90;;;;;;5032977;28;20091;-69
2022/07/27 03:38:33;;;;;;;18.90;1.80;;;13.70;99.90;;;;;;5033209;28;20025;-69
2022/07/27 03:40:59;;;;;;;11.90;2.33;;;13.70;99.90;;;;;;5034070;28;20021;-70
2022/07/27 03:43:25;;;;;;;13.25;1.88;;;13.70;99.90;;;;;;5034023;28;20048;-70
2022/07/27 03:45:50;;;;;;;21.85;2.58;;;13.70;99.90;;;;;;5033890;28;20041;-70
2022/07/27 03:48:16;;;;;;;11.73;2.35;;;13.70;99.90;;;;;;5032597;28;20064;-70
2022/07/27 03:50:41;;;;;;;20.80;2.53;;;13.60;99.90;;;;;;5034018;28;20056;-70
2022/07/27 03:53:08;;;;;;;13.13;2.33;;;13.60;99.90;;;;;;5033860;28;20029;-70
2022/07/27 03:55:33;;;;;;;11.55;2.58;;;13.60;99.90;;;;;;5033705;28;20025;-70
2022/07/27 03:57:59;;;;;;;7.03;2.58;;;13.50;99.90;;;;;;5032876;28;20024;-70
2022/07/27 04:00:24;;;;;;;13.57;2.38;;;13.50;99.90;;;;;;5033993;28;20469;-70
2022/07/27 04:02:50;;;;;;;7.38;1.85;;;13.50;99.90;;;;;;5033771;28;20025;-70
2022/07/27 04:05:16;;;;;;;12.02;2.00;;;13.50;99.90;;;;;;5034150;28;20052;-70
2022/07/27 04:07:42;;;;;;;22.52;2.90;;;13.50;99.90;;;;;;5032711;28;20036;-70
2022/07/27 04:10:08;;;;;;;16.95;3.47;;;13.60;99.90;;;;;;5034599;28;20104;-70
2022/07/27 04:12:38;;;;;;;17.02;1.98;;;13.70;99.90;;;;;;5034351;28;20072;-70
2022/07/27 04:15:07;;;;;;;14.40;2.55;;;13.70;99.90;;;;;;5033862;28;20025;-70
2022/07/27 04:17:32;;;;;;;11.93;2.00;;;13.80;99.90;;;;;;5032508;28;20025;-70
2022/07/27 04:19:58;;;;;;;21.60;2.70;;;13.70;99.90;;;;;;5033262;28;20055;-70
2022/07/27 04:22:24;;;;;;;13.77;1.92;;;13.70;99.90;;;;;;5033712;28;20104;-70
2022/07/27 04:24:49;;;;;;;11.65;1.90;;;13.70;99.90;;;;;;5033351;28;20029;-70
2022/07/27 04:27:15;;;;;;;30.70;2.92;;;13.80;99.90;;;;;;5032408;28;20025;-70
2022/07/27 04:29:40;;;;;;;10.65;1.88;;;13.80;99.90;;;;;;5033267;28;20028;-70
2022/07/27 04:32:06;;;;;;;11.05;1.85;;;13.70;99.90;;;;;;5033354;28;20032;-70
2022/07/27 04:34:32;;;;;;;21.20;3.85;;;13.70;99.90;;;;;;5033673;28;20140;-70
2022/07/27 04:36:57;;;;;;;17.30;2.17;;;13.70;99.90;;;;;;5031961;28;20060;-69
2022/07/27 04:39:23;;;;;;;17.00;2.60;;;13.70;99.90;;;;;;5032367;28;20385;-70
2022/07/27 04:41:48;;;;;;;14.48;2.35;;;13.70;99.90;;;;;;5033669;28;20359;-70
2022/07/27 04:44:14;;;;;;;15.88;2.78;;;13.70;99.90;;;;;;5033541;28;20488;-70
2022/07/27 04:46:40;;;;;;;12.75;2.00;;;13.70;99.90;;;;;;5031978;28;20040;-70
2022/07/27 04:49:05;;;;;;;18.65;2.75;;;13.70;99.90;;;;;;5033421;28;20417;-70
2022/07/27 04:51:31;;;;;;;12.90;2.38;;;13.70;99.90;;;;;;5032238;28;20037;-70
2022/07/27 04:53:56;;;;;;;21.33;2.67;;;13.70;99.90;;;;;;5033081;28;20021;-70
2022/07/27 04:56:22;;;;;;;12.05;2.03;;;13.70;99.90;;;;;;5032244;28;20022;-69
2022/07/27 04:58:47;;;;;;;23.02;1.88;;;13.80;99.90;;;;;;5015221;28;20025;-70
2022/07/27 05:01:13;;;;;;;12.63;2.33;;;13.80;99.90;;;;;;5032184;28;20083;-70
2022/07/27 05:03:41;;;;;;;14.98;2.45;;;13.90;99.90;;;;;;5033114;28;20072;-70
2022/07/27 05:06:07;;;;;;;23.27;2.42;;;13.90;99.90;;;;;;5033064;28;20530;-70
2022/07/27 05:08:33;;;;;;;16.50;2.53;;;13.90;99.90;;;;;;5031924;28;20120;-70
2022/07/27 05:10:59;;;;;;;11.95;1.95;;;13.90;99.90;;;;;;5032795;28;20470;-70
2022/07/27 05:13:24;;;;;;;10.98;1.70;;;13.90;99.90;;;;;;5033064;28;20029;-70
2022/07/27 05:15:50;;;;;;;13.05;2.00;;;13.90;99.90;;;;;;5032984;28;20470;-69
2022/07/27 05:18:16;;;;;;;16.20;2.65;;;14.00;99.90;;;;;;5029933;28;20041;-70
2022/07/27 05:20:42;;;;;;;19.33;3.03;;;14.00;99.90;;;;;;5022594;28;20026;-70
2022/07/27 05:23:07;;;;;;;8.68;1.95;;;14.00;99.90;;;;;;5033579;28;20030;-70
2022/07/27 05:25:33;;;;;;;18.50;1.88;;;14.00;99.90;;;;;;5036499;28;20026;-70
2022/07/27 05:27:58;;;;;;;16.63;2.25;;;14.10;99.90;;;;;;5035612;28;20029;-70
2022/07/27 05:30:24;;;;;;;16.63;2.95;;;14.10;99.90;;;;;;5035766;28;20532;-70
2022/07/27 05:32:50;;;;;;;15.88;2.20;;;14.10;99.90;;;;;;5036681;28;20025;-70
2022/07/27 05:35:16;;;;;;;6.82;1.58;;;14.20;99.90;;;;;;5033061;28;20080;-70
2022/07/27 05:37:41;;;;;;;12.10;2.03;;;14.20;99.90;;;;;;5036316;28;20029;-70
2022/07/27 05:40:09;;;;;;;15.60;3.30;;;14.20;99.90;;;;;;5036341;28;20033;-70
2022/07/27 05:42:34;;;;;;;16.80;2.83;;;14.20;99.90;;;;;;5036410;28;20108;-70
2022/07/27 05:45:00;;;;;;;16.90;3.35;;;14.30;99.90;;;;;;5034019;28;20064;-70
2022/07/27 05:47:26;;;;;;;12.15;1.60;;;14.30;99.90;;;;;;5035196;28;20087;-70
2022/07/27 05:49:51;;;;;;;14.00;2.35;;;14.30;99.90;;;;;;5034051;28;20064;-69
2022/07/27 05:52:19;;;;;;;9.57;2.38;;;14.30;99.90;;;;;;5036073;28;20029;-70
2022/07/27 05:54:45;;;;;;;21.35;3.13;;;14.30;99.90;;;;;;5035938;28;20465;-70
2022/07/27 05:57:11;;;;;;;14.48;2.70;;;14.30;99.90;;;;;;5035968;28;20025;-70
2022/07/27 05:59:37;;;;;;;13.63;3.47;;;14.30;99.90;;;;;;5035890;28;20485;-70
2022/07/27 06:02:03;;;;;;;12.50;1.85;;;14.40;99.90;;;;;;5034982;28;20033;-70
2022/07/27 06:04:28;;;;;;;18.00;2.60;;;14.40;99.90;;;;;;5035666;28;20108;-69
2022/07/27 06:09:39;;;;;;;12.10;2.47;;;14.50;99.90;;;;;;5026421;28;20041;-71
2022/07/27 06:12:05;;;;;;;16.60;2.63;;;14.60;99.90;;;;;;5034995;28;20018;-70
2022/07/27 06:14:31;;;;;;;12.98;1.92;;;14.60;99.90;;;;;;5035732;28;20017;-70
2022/07/27 06:16:57;;;;;;;8.52;1.92;;;14.70;99.90;;;;;;5034602;28;20018;-69
2022/07/27 06:19:22;;;;;;;16.33;3.58;;;14.80;99.90;;;;;;5035369;28;20033;-69
2022/07/27 06:21:48;;;;;;;12.25;1.80;;;14.80;99.90;;;;;;5035605;28;20364;-70
2022/07/27 06:24:13;;;;;;;12.82;2.15;;;14.90;99.90;;;;;;5035914;28;20042;-70
2022/07/27 06:26:39;;;;;;;17.85;2.05;;;14.80;99.90;;;;;;5033268;28;20024;-69
2022/07/27 06:29:05;;;;;;;11.18;3.30;;;14.80;99.90;;;;;;5033042;28;20053;-70
2022/07/27 06:31:30;;;;;;;6.90;1.60;;;14.80;99.90;;;;;;5035295;28;20392;-70
2022/07/27 06:33:56;;;;;;;13.88;2.13;;;14.80;99.90;;;;;;5036083;28;20014;-70
2022/07/27 06:36:23;;;;;;;6.13;1.65;;;14.90;99.90;;;;;;5036082;28;20022;-70
2022/07/27 06:38:48;;;;;;;14.00;2.30;;;14.90;99.90;;;;;;5033412;28;20470;-69
2022/07/27 06:41:14;;;;;;;8.27;1.58;;;14.90;99.90;;;;;;5034173;28;20087;-70
2022/07/27 06:43:40;;;;;;;18.88;2.15;;;14.90;99.90;;;;;;5035419;28;20030;-70
2022/07/27 06:46:06;;;;;;;13.93;1.63;;;14.80;99.90;;;;;;5035096;28;20156;-70
2022/07/27 06:48:32;;;;;;;10.13;2.17;;;14.70;99.90;;;;;;5034904;28;20025;-70
2022/07/27 06:50:58;;;;;;;11.98;1.98;;;14.60;99.90;;;;;;5032255;28;20546;-70
2022/07/27 06:53:25;;;;;;;17.35;1.77;;;14.50;99.90;;;;;;5034947;28;20144;-70
2022/07/27 06:55:51;;;;;;;22.00;2.55;;;14.50;99.90;;;;;;5035310;28;20108;-70
2022/07/27 06:58:17;;;;;;;21.63;2.90;;;14.60;99.90;;;;;;5035121;28;20029;-70
2022/07/27 07:00:43;;;;;;;20.30;2.55;;;14.50;99.90;;;;;;5033747;28;20552;-70
2022/07/27 07:03:10;;;;;;;14.52;2.90;;;14.70;99.90;;;;;;5035073;28;20029;-70
2022/07/27 07:05:42;;;;;;;19.58;2.83;;;14.70;99.90;;;;;;5034747;28;20117;-70
2022/07/27 07:08:12;;;;;;;20.50;2.93;;;14.60;99.90;;;;;;5034633;28;20035;-70
2022/07/27 07:10:39;;;;;;;13.70;2.80;;;14.60;99.90;;;;;;5032810;28;20149;-70
2022/07/27 07:13:06;;;;;;;12.63;3.25;;;14.60;99.90;;;;;;5034756;28;20021;-70
2022/07/27 07:15:33;;;;;;;20.90;2.67;;;14.50;99.90;;;;;;5034615;28;20071;-70
2022/07/27 07:20:25;;;;;;;16.60;2.50;;;14.30;99.90;;;;;;5053694;23;20411;-65
2022/07/27 07:22:51;;;;;;;21.25;2.50;;;14.10;99.90;;;;;;5032386;28;20097;-66
2022/07/27 07:25:17;;;;;;;16.65;2.70;;;14.30;99.90;;;;;;5033177;28;20469;-66
2022/07/27 07:27:42;;;;;;;19.00;3.05;;;14.40;99.90;;;;;;5033775;28;20473;-66
2022/07/27 07:30:08;;;;;;;14.23;2.80;;;14.40;99.90;;;;;;5033223;28;20038;-66
2022/07/27 07:32:35;;;;;;;20.80;2.72;;;14.50;99.90;;;;;;5032131;28;20049;-66
2022/07/27 07:35:02;;;;;;;15.43;2.20;;;14.70;99.90;;;;;;5033951;28;20516;-66
2022/07/27 07:37:28;;;;;;;9.52;2.05;;;14.80;99.90;;;;;;5022164;28;20022;-67
2022/07/27 07:39:53;;;;;;;15.77;2.45;;;14.90;99.90;;;;;;5014445;28;20101;-68
2022/07/27 07:42:19;;;;;;;23.10;2.80;;;15.00;99.90;;;;;;5023089;28;20025;-68
2022/07/27 07:44:44;;;;;;;15.60;2.30;;;15.00;99.90;;;;;;5034190;28;20029;-68
2022/07/27 07:47:10;;;;;;;10.07;1.80;;;15.00;99.90;;;;;;5032081;28;20121;-68
2022/07/27 07:49:36;;;;;;;13.75;2.08;;;15.20;99.90;;;;;;5033784;28;20025;-68
2022/07/27 07:52:02;;;;;;;6.95;2.05;;;15.20;99.90;;;;;;5033779;28;20047;-66
2022/07/27 07:54:27;;;;;;;13.57;2.17;;;15.30;99.90;;;;;;5033989;28;20075;-66
2022/07/27 07:56:53;;;;;;;23.48;2.20;;;15.40;99.90;;;;;;5032705;28;20056;-66
2022/07/27 07:59:19;;;;;;;14.95;2.45;;;15.40;99.90;;;;;;5031791;28;20022;-67
2022/07/27 08:01:44;;;;;;;13.18;1.77;;;15.50;99.90;;;;;;5033895;28;20022;-66
2022/07/27 08:04:10;;;;;;;25.75;2.70;;;15.60;99.90;;;;;;5033822;28;20029;-67
2022/07/27 08:06:37;;;;;;;20.80;2.45;;;15.80;99.90;;;;;;5032734;28;20033;-67
2022/07/27 08:09:03;;;;;;;12.93;2.42;;;16.00;99.90;;;;;;5033769;28;20034;-66
2022/07/27 08:11:29;;;;;;;14.18;2.53;;;16.00;99.90;;;;;;5033702;28;20137;-66
2022/07/27 08:13:54;;;;;;;12.98;2.55;;;15.90;99.90;;;;;;5033418;28;20022;-66
2022/07/27 08:16:20;;;;;;;14.10;1.80;;;15.90;99.90;;;;;;5032251;28;20018;-67
2022/07/27 08:18:45;;;;;;;16.67;2.75;;;15.80;99.90;;;;;;5033088;28;20034;-67
2022/07/27 08:21:11;;;;;;;14.63;3.17;;;15.80;99.90;;;;;;5033639;28;20424;-66
2022/07/27 08:23:37;;;;;;;20.77;1.98;;;15.80;99.90;;;;;;5033165;28;20033;-67
2022/07/27 08:26:03;;;;;;;20.92;2.70;;;15.90;99.90;;;;;;5033652;28;20033;-66
2022/07/27 08:28:28;;;;;;;11.20;1.80;;;16.00;99.90;;;;;;5031171;28;20033;-66
2022/07/27 08:30:54;;;;;;;13.65;1.75;;;16.10;99.90;;;;;;5031189;28;20072;-66
2022/07/27 08:33:20;;;;;;;15.90;2.00;;;16.20;99.90;;;;;;5033275;28;20462;-66
2022/07/27 08:35:45;;;;;;;9.15;1.73;;;16.30;99.90;;;;;;5033522;28;20053;-66
2022/07/27 08:38:11;;;;;;;15.18;2.65;;;16.30;99.90;;;;;;5032320;28;20109;-66
2022/07/27 08:40:38;;;;;;;17.50;2.53;;;16.30;99.90;;;;;;5033208;28;20029;-66
2022/07/27 08:43:05;;;;;;;13.52;2.03;;;16.50;99.90;;;;;;5033095;28;20037;-66
2022/07/27 08:45:32;;;;;;;18.13;1.92;;;16.60;99.90;;;;;;5033459;28;20017;-66
2022/07/27 08:47:58;;;;;;;11.73;2.15;;;16.70;99.90;;;;;;5032232;28;20025;-66
2022/07/27 08:50:27;;;;;;;15.25;1.98;;;17.00;99.90;;;;;;5033171;28;20030;-66
2022/07/27 08:52:56;;;;;;;19.95;2.17;;;17.00;99.90;;;;;;5033391;28;20056;-66
2022/07/27 08:55:23;;;;;;;16.63;2.22;;;16.70;99.90;;;;;;5033320;28;20112;-67
2022/07/27 08:57:50;;;;;;;6.85;1.83;;;16.90;99.90;;;;;;5032165;28;20029;-67
2022/07/27 09:00:16;;;;;;;11.52;1.88;;;16.90;99.90;;;;;;5036920;28;20033;-67
2022/07/27 09:02:43;;;;;;;9.50;2.00;;;17.00;99.90;;;;;;5036867;28;20030;-67
2022/07/27 09:05:09;;;;;;;18.20;2.00;;;17.00;99.90;;;;;;5036853;28;20034;-67
2022/07/27 09:07:35;;;;;;;14.65;2.38;;;17.10;99.90;;;;;;5035846;28;20030;-67
2022/07/27 09:10:01;;;;;;;16.10;2.33;;;16.90;99.90;;;;;;5036945;28;20120;-67
2022/07/27 09:12:28;;;;;;;17.13;2.10;;;16.80;99.90;;;;;;5037071;28;20105;-67
2022/07/27 09:15:09;;;;;;;16.55;1.88;;;16.40;99.90;;;;;;5037063;28;20033;-66
2022/07/27 09:17:35;;;;;;;22.92;3.35;;;16.40;99.90;;;;;;5034486;28;20397;-66
2022/07/27 09:20:05;;;;;;;17.45;3.75;;;16.70;99.90;;;;;;5036402;28;20037;-66
2022/07/27 09:22:57;;;;;;;17.83;2.47;;;17.00;99.90;;;;;;5032378;28;20034;-66
2022/07/27 09:25:26;;;;;;;11.52;2.33;;;17.20;99.90;;;;;;5015672;28;20048;-66
2022/07/27 09:27:54;;;;;;;14.10;1.70;;;17.30;99.90;;;;;;5017131;28;20026;-66
2022/07/27 09:30:20;;;;;;;9.35;2.15;;;17.20;99.90;;;;;;5036312;28;20021;-65
2022/07/27 09:32:59;;;;;;;13.57;2.22;;;17.10;99.90;;;;;;5036690;28;20025;-65
2022/07/27 09:35:33;;;;;;;6.22;1.45;;;17.50;99.90;;;;;;5035897;28;20025;-66
2022/07/27 09:38:21;;;;;;;12.32;2.10;;;18.00;99.90;;;;;;5036590;28;20057;-66
2022/07/27 09:40:57;;;;;;;13.82;2.40;;;18.10;99.90;;;;;;5036550;28;20041;-66
2022/07/27 09:43:22;;;;;;;18.30;2.28;;;18.00;99.90;;;;;;5035157;28;20140;-66
2022/07/27 09:45:49;;;;;;;19.23;2.85;;;17.80;99.90;;;;;;5034914;28;20089;-66
2022/07/27 09:48:17;;;;;;;17.58;2.13;;;17.50;99.90;;;;;;5035542;28;20079;-66
2022/07/27 09:51:00;;;;;;;14.23;3.13;;;17.40;99.90;;;;;;5034731;28;20033;-66
2022/07/27 09:53:28;;;;;;;8.27;2.00;;;17.40;99.90;;;;;;5035958;28;20382;-65
2022/07/27 09:55:59;;;;;;;15.50;2.35;;;17.40;99.90;;;;;;5035960;28;20115;-66
2022/07/27 09:58:46;;;;;;;10.65;2.10;;;17.20;99.90;;;;;;5035150;28;20053;-66
2022/07/27 10:01:19;;;;;;;17.27;2.13;;;17.00;99.90;;;;;;5036120;28;20028;-66
2022/07/27 10:03:45;;;;;;;15.32;2.80;;;16.80;99.90;;;;;;5036022;28;20389;-66
2022/07/27 10:06:12;;;;;;;9.85;1.90;;;17.00;99.90;;;;;;5035798;28;20568;-66
2022/07/27 10:08:39;;;;;;;15.73;1.70;;;17.00;99.90;;;;;;5034738;28;20041;-66
2022/07/27 10:11:06;;;;;;;12.68;1.92;;;16.90;99.90;;;;;;5035428;28;20040;-66
2022/07/27 10:13:32;;;;;;;10.55;1.77;;;16.80;99.90;;;;;;5035679;28;20025;-66
2022/07/27 10:15:58;;;;;;;19.77;2.65;;;16.80;99.90;;;;;;5035610;28;20079;-66
2022/07/27 10:18:49;;;;;;;8.00;1.60;;;16.80;99.90;;;;;;5034337;28;20132;-66
2022/07/27 10:21:15;;;;;;;20.30;2.47;;;16.70;99.90;;;;;;5034982;28;20468;-66
2022/07/27 10:23:54;;;;;;;8.52;1.73;;;16.70;99.90;;;;;;5032693;28;20371;-66
2022/07/27 10:26:24;;;;;;;10.20;1.73;;;16.40;99.90;;;;;;5026898;28;20112;-66
2022/07/27 10:28:55;;;;;;;19.75;2.83;;;16.40;99.90;;;;;;5032502;28;20026;-67
2022/07/27 10:31:27;;;;;;;10.60;2.20;;;16.50;99.90;;;;;;5029869;28;20037;-67
2022/07/27 10:33:59;;;;;;;15.05;2.40;;;16.70;99.90;;;;;;5028688;28;20036;-67
2022/07/27 10:36:24;;;;;;;15.32;2.58;;;16.70;99.90;;;;;;5029319;28;20065;-67
2022/07/27 10:38:55;;;;;;;11.68;2.58;;;16.80;99.90;;;;;;5031151;28;20053;-67
2022/07/27 10:41:24;;;;;;;10.70;2.00;;;16.90;99.90;;;;;;5022827;28;20087;-66
2022/07/27 10:44:16;;;;;;;9.82;1.90;;;16.90;99.90;;;;;;5021230;28;20034;-66
2022/07/27 10:46:45;;;;;;;10.27;1.70;;;17.00;99.90;;;;;;5027841;28;20038;-66
2022/07/27 10:49:17;;;;;;;24.58;2.55;;;17.10;99.90;;;;;;5027372;28;20569;-66
2022/07/27 10:51:42;;;;;;;11.55;1.80;;;17.30;99.90;;;;;;5021862;28;20042;-66
2022/07/27 10:54:33;;;;;;;9.75;1.40;;;17.40;99.90;;;;;;5024562;28;20551;-66
2022/07/27 10:57:00;;;;;;;12.13;2.55;;;17.80;99.90;;;;;;5024288;28;20379;-66
2022/07/27 10:59:38;;;;;;;13.32;1.98;;;17.80;99.90;;;;;;5029442;28;20025;-66
2022/07/27 11:02:12;;;;;;;10.07;1.75;;;18.00;99.90;;;;;;5029653;28;20033;-67
2022/07/27 11:04:51;;;;;;;12.90;2.13;;;18.10;99.90;;;;;;5034749;28;20433;-67
2022/07/27 11:07:21;;;;;;;13.65;2.53;;;18.00;99.90;;;;;;5034402;28;20029;-67
2022/07/27 11:09:50;;;;;;;9.02;2.00;;;17.70;99.90;;;;;;5033312;28;20036;-67
2022/07/27 11:12:16;;;;;;;10.25;1.88;;;17.60;99.90;;;;;;5033428;28;20032;-67
2022/07/27 11:14:54;;;;;;;11.13;1.42;;;17.50;99.90;;;;;;5034593;28;20037;-67
2022/07/27 11:17:23;;;;;;;60.40;29.80;;;17.50;99.90;;;;;;5034201;28;20562;-67
2022/07/27 11:19:57;;;;;;;31.48;10.07;;;17.40;99.90;;;;;;5033140;28;20477;-67
2022/07/27 11:22:34;;;;;;;153.05;45.60;;;17.30;99.90;;;;;;5033720;28;20041;-66
2022/07/27 11:25:00;;;;;;;9.02;2.92;;;17.60;99.90;;;;;;5034303;28;20551;-67
2022/07/27 11:27:26;;;;;;;16.33;2.10;;;17.80;99.90;;;;;;5033871;28;20362;-66
2022/07/27 11:29:52;;;;;;;14.43;1.80;;;18.10;99.90;;;;;;5032831;28;20035;-66
2022/07/27 11:32:19;;;;;;;9.80;2.33;;;17.90;99.90;;;;;;5033466;28;20083;-66
2022/07/27 11:34:45;;;;;;;12.95;2.25;;;17.70;99.90;;;;;;5033926;28;20057;-66
2022/07/27 11:37:22;;;;;;;9.05;1.63;;;17.70;99.90;;;;;;5033914;28;20060;-66
2022/07/27 11:39:58;;;;;;;15.50;2.90;;;17.40;99.90;;;;;;5032775;28;20482;-66
2022/07/27 11:42:37;;;;;;;16.50;2.03;;;17.00;99.90;;;;;;5033909;28;20033;-66
2022/07/27 11:45:04;;;;;;;13.75;2.50;;;17.10;99.90;;;;;;5033643;28;20029;-66
2022/07/27 11:47:29;;;;;;;20.00;2.50;;;17.40;99.90;;;;;;5033676;28;20014;-66
2022/07/27 11:50:10;;;;;;;14.45;2.70;;;17.60;99.90;;;;;;5032909;28;20369;-66
2022/07/27 11:52:36;;;;;;;13.20;2.28;;;17.60;99.90;;;;;;5033846;28;20448;-66
2022/07/27 11:55:01;;;;;;;16.20;2.08;;;17.80;99.90;;;;;;5033090;28;20053;-66
2022/07/27 11:57:31;;;;;;;15.77;2.20;;;17.90;99.90;;;;;;5032645;28;20413;-66
2022/07/27 11:59:57;;;;;;;17.63;2.72;;;17.90;99.90;;;;;;5032886;28;20040;-66
2022/07/27 12:02:25;;;;;;;11.60;2.28;;;18.20;99.90;;;;;;5032909;28;20033;-66
2022/07/27 12:04:52;;;;;;;14.35;2.80;;;18.60;99.90;;;;;;5014173;28;20182;-67
2022/07/27 12:07:36;;;;;;;7.82;2.15;;;18.60;99.90;;;;;;5028972;28;20044;-66
2022/07/27 12:10:04;;;;;;;17.65;2.10;;;18.40;99.90;;;;;;5033744;28;20029;-66
2022/07/27 12:12:31;;;;;;;18.48;2.30;;;18.10;99.90;;;;;;5032439;28;20026;-66
2022/07/27 12:15:00;;;;;;;20.45;2.97;;;17.90;99.90;;;;;;5033544;28;20079;-66
2022/07/27 12:17:30;;;;;;;12.48;2.42;;;17.70;99.90;;;;;;5033713;28;20049;-66
2022/07/27 12:20:11;;;;;;;15.30;2.65;;;17.50;99.90;;;;;;5033161;28;20110;-66
2022/07/27 12:22:49;;;;;;;14.05;2.53;;;17.40;99.90;;;;;;5032514;28;20026;-66
2022/07/27 12:25:17;;;;;;;10.95;1.90;;;17.40;99.90;;;;;;5013842;28;20030;-66
2022/07/27 12:27:58;;;;;;;15.45;3.25;;;17.10;99.90;;;;;;5013437;28;20505;-66
2022/07/27 12:30:49;;;;;;;20.27;2.58;;;16.80;99.90;;;;;;5031557;28;20041;-66
2022/07/27 12:33:28;;;;;;;15.32;3.05;;;16.70;99.90;;;;;;5028062;28;20037;-66
2022/07/27 12:35:55;;;;;;;9.85;2.90;;;16.90;99.90;;;;;;5040139;28;20470;-66
2022/07/27 12:38:21;;;;;;;36.92;2.85;;;17.20;99.90;;;;;;5039643;28;20029;-66
2022/07/27 12:40:52;;;;;;;7.65;2.65;;;17.50;99.90;;;;;;5039824;28;20043;-66
2022/07/27 12:43:20;;;;;;;18.92;2.33;;;17.60;99.90;;;;;;5038865;28;20050;-66
2022/07/27 12:45:47;;;;;;;15.18;2.88;;;17.60;99.90;;;;;;5039775;28;20025;-66
2022/07/27 12:48:19;;;;;;;12.93;2.65;;;17.90;99.90;;;;;;5039938;28;20052;-66